Time;durP1;ratioP1;P1;durP2;ratioP2;P2;SDS_P1;SDS_P2;PMS_P1;PMS_P2;Temp;Humidity;BMP_temperature;BMP_pressure;BME280_temperature;BME280_humidity;BME280_pressure;Samples;Min_cycle;Max_cycle;Signal;HPM_P1;HPM_P2
2021/10/06 00:00:06;;;;;;;1.88;1.40;;;17.80;64.40;;;;;;3137224;28;20144;-83
2021/10/06 00:01:38;;;;;;;1.25;1.15;;;17.80;64.40;;;;;;3138737;28;20049;-84
2021/10/06 00:03:10;;;;;;;2.83;1.40;;;17.80;64.40;;;;;;3147847;28;20397;-84
2021/10/06 00:04:42;;;;;;;1.60;1.50;;;17.80;64.40;;;;;;3150925;28;20060;-83
2021/10/06 00:06:13;;;;;;;1.30;1.20;;;17.80;64.30;;;;;;3151841;28;20059;-84
2021/10/06 00:07:45;;;;;;;1.35;1.25;;;17.80;64.30;;;;;;3151279;28;20049;-84
2021/10/06 00:09:17;;;;;;;1.45;1.35;;;17.80;64.40;;;;;;3141966;28;20053;-84
2021/10/06 00:10:49;;;;;;;1.48;1.25;;;17.80;64.40;;;;;;3138318;28;20419;-84
2021/10/06 00:12:20;;;;;;;1.40;1.30;;;17.80;64.40;;;;;;3139258;28;20052;-84
2021/10/06 00:13:53;;;;;;;1.58;1.27;;;17.80;64.40;;;;;;3139096;28;20048;-83
2021/10/06 00:15:25;;;;;;;1.30;1.20;;;17.80;64.40;;;;;;3138617;28;20049;-85
2021/10/06 00:16:57;;;;;;;1.40;1.30;;;17.80;64.40;;;;;;3139085;28;20067;-85
2021/10/06 00:18:29;;;;;;;1.53;1.43;;;17.80;64.40;;;;;;3139975;28;20068;-84
2021/10/06 00:20:01;;;;;;;1.33;1.23;;;17.80;64.50;;;;;;3138447;28;20463;-83
2021/10/06 00:21:32;;;;;;;1.73;1.30;;;17.80;64.50;;;;;;3139577;28;20494;-83
2021/10/06 00:23:04;;;;;;;1.67;1.20;;;17.80;64.50;;;;;;3139224;28;20056;-84
2021/10/06 00:24:36;;;;;;;1.40;1.30;;;17.80;64.50;;;;;;3141003;28;20049;-84
2021/10/06 00:26:07;;;;;;;1.50;1.40;;;17.80;64.30;;;;;;3141257;28;20075;-83
2021/10/06 00:27:39;;;;;;;1.38;1.17;;;17.80;64.40;;;;;;3141876;28;20064;-84
2021/10/06 00:29:12;;;;;;;1.20;1.10;;;17.80;64.40;;;;;;3141066;28;20052;-83
2021/10/06 00:30:44;;;;;;;;;;;17.80;64.50;;;;;;3140267;28;20044;-84
2021/10/06 00:32:15;;;;;;;1.50;1.40;;;17.80;64.50;;;;;;3141260;28;19920;-83
2021/10/06 00:33:47;;;;;;;1.02;1.00;;;17.80;64.50;;;;;;3140611;28;20057;-83
2021/10/06 00:35:19;;;;;;;1.88;1.40;;;17.70;64.50;;;;;;3141792;28;20053;-83
2021/10/06 00:36:51;;;;;;;1.48;1.38;;;17.70;64.50;;;;;;3141091;28;20098;-85
2021/10/06 00:38:23;;;;;;;1.75;1.30;;;17.70;64.50;;;;;;3140935;28;20048;-84
2021/10/06 00:39:54;;;;;;;1.40;1.30;;;17.80;64.60;;;;;;3139453;28;20051;-84
2021/10/06 00:41:26;;;;;;;1.50;1.38;;;17.80;64.50;;;;;;3141520;28;20136;-84
2021/10/06 00:42:58;;;;;;;1.42;1.33;;;17.70;64.50;;;;;;3141846;28;20045;-83
2021/10/06 00:44:34;;;;;;;1.65;1.30;;;17.80;64.50;;;;;;3140865;28;20049;-84
2021/10/06 00:46:06;;;;;;;1.23;1.13;;;17.80;64.50;;;;;;3140267;28;20040;-84
2021/10/06 00:47:38;;;;;;;1.63;1.20;;;17.80;64.50;;;;;;3140876;28;20049;-83
2021/10/06 00:49:09;;;;;;;1.45;1.30;;;17.80;64.50;;;;;;3140738;28;20071;-84
2021/10/06 00:50:41;;;;;;;1.63;1.38;;;17.80;64.60;;;;;;3141012;28;20056;-84
2021/10/06 00:52:13;;;;;;;1.42;1.25;;;17.80;64.50;;;;;;3141526;28;20060;-84
2021/10/06 00:53:45;;;;;;;1.30;1.20;;;17.80;64.50;;;;;;3140313;28;20053;-84
2021/10/06 00:55:17;;;;;;;1.50;1.30;;;17.80;64.50;;;;;;3141795;28;20386;-83
2021/10/06 00:56:48;;;;;;;1.40;1.30;;;17.80;64.50;;;;;;3141229;28;20053;-83
2021/10/06 00:58:20;;;;;;;1.20;1.10;;;17.80;64.60;;;;;;3141452;28;20083;-84
2021/10/06 00:59:55;;;;;;;1.40;1.30;;;17.70;64.40;;;;;;3140381;28;20083;-84
2021/10/06 01:01:27;;;;;;;1.40;1.30;;;17.80;64.50;;;;;;3141194;28;20102;-84
2021/10/06 01:02:59;;;;;;;1.40;1.30;;;17.80;64.40;;;;;;3147737;28;20433;-84
2021/10/06 01:04:31;;;;;;;2.00;1.40;;;17.70;64.40;;;;;;3153022;28;20045;-84
2021/10/06 01:06:02;;;;;;;1.30;1.20;;;17.70;64.50;;;;;;3153857;28;20055;-84
2021/10/06 01:07:34;;;;;;;1.48;1.38;;;17.70;64.50;;;;;;3154146;28;20493;-84
2021/10/06 01:09:06;;;;;;;1.65;1.35;;;17.70;64.40;;;;;;3145304;28;20084;-85
2021/10/06 01:10:37;;;;;;;1.40;1.30;;;17.70;64.40;;;;;;3141057;28;20052;-83
2021/10/06 01:12:09;;;;;;;1.33;1.23;;;17.70;64.50;;;;;;3143206;28;20419;-83
2021/10/06 01:13:41;;;;;;;1.20;1.10;;;17.70;64.50;;;;;;3153726;28;20059;-86
2021/10/06 01:15:14;;;;;;;1.55;1.30;;;17.70;64.50;;;;;;3152984;28;20048;-84
2021/10/06 01:16:46;;;;;;;1.60;1.20;;;17.70;64.50;;;;;;3153298;28;20061;-84
2021/10/06 01:18:17;;;;;;;1.20;1.10;;;17.70;64.40;;;;;;3153551;28;20048;-83
2021/10/06 01:19:49;;;;;;;1.60;1.50;;;17.70;64.40;;;;;;3153053;28;20060;-84
2021/10/06 01:21:21;;;;;;;1.30;1.20;;;17.70;64.50;;;;;;3153431;28;20053;-84
2021/10/06 01:22:53;;;;;;;1.33;1.10;;;17.70;64.40;;;;;;3153599;28;20045;-84
2021/10/06 01:24:25;;;;;;;1.58;1.30;;;17.70;64.40;;;;;;3152949;28;20052;-84
2021/10/06 01:25:57;;;;;;;2.07;1.23;;;17.70;64.40;;;;;;3153599;28;20060;-84
2021/10/06 01:27:28;;;;;;;1.30;1.20;;;17.80;64.40;;;;;;3153693;28;20291;-84
2021/10/06 01:29:00;;;;;;;1.73;1.30;;;17.80;64.40;;;;;;3152884;28;20063;-83
2021/10/06 01:30:32;;;;;;;1.55;1.45;;;17.80;64.40;;;;;;3142896;28;20188;-85
2021/10/06 01:32:10;;;;;;;1.80;1.40;;;17.70;64.40;;;;;;3141295;28;20048;-84
2021/10/06 01:33:42;;;;;;;1.42;1.20;;;17.70;64.40;;;;;;3139782;28;20056;-83
2021/10/06 01:35:15;;;;;;;1.58;1.23;;;17.80;64.40;;;;;;3141365;28;20049;-83
2021/10/06 01:36:49;;;;;;;1.50;1.25;;;17.80;64.40;;;;;;3140772;28;20062;-84
2021/10/06 01:38:21;;;;;;;1.40;1.20;;;17.70;64.40;;;;;;3142094;28;20136;-84
2021/10/06 01:39:51;;;;;;;1.20;1.10;;;17.80;64.40;;;;;;3140271;28;20161;-84
2021/10/06 01:41:23;;;;;;;1.38;1.27;;;17.80;64.30;;;;;;3140565;28;20048;-83
2021/10/06 01:42:55;;;;;;;1.25;1.15;;;17.80;64.40;;;;;;3140604;28;20053;-84
2021/10/06 01:44:29;;;;;;;1.30;1.20;;;17.70;64.40;;;;;;3140664;28;20103;-84
2021/10/06 01:46:01;;;;;;;1.40;1.30;;;17.70;64.40;;;;;;3140004;28;20044;-83
2021/10/06 01:47:33;;;;;;;1.20;1.10;;;17.70;64.40;;;;;;3141293;28;20049;-82
2021/10/06 01:49:05;;;;;;;1.63;1.33;;;17.70;64.40;;;;;;3140291;28;20056;-83
2021/10/06 01:50:37;;;;;;;1.90;1.30;;;17.70;64.50;;;;;;3139795;28;20048;-84
2021/10/06 01:52:10;;;;;;;1.00;1.00;;;17.70;64.50;;;;;;3140931;28;20107;-85
2021/10/06 01:53:42;;;;;;;1.30;1.20;;;17.70;64.50;;;;;;3136400;28;20053;-84
2021/10/06 01:55:14;;;;;;;1.27;1.17;;;17.70;64.50;;;;;;3128709;28;20037;-84
2021/10/06 01:56:46;;;;;;;1.50;1.27;;;17.70;65.20;;;;;;3128603;28;20418;-84
2021/10/06 01:58:19;;;;;;;1.30;1.20;;;17.70;64.50;;;;;;3128141;28;20053;-84
2021/10/06 01:59:49;;;;;;;;;;;17.70;64.50;;;;;;3128166;28;20064;-84
2021/10/06 02:01:21;;;;;;;1.60;1.20;;;17.70;64.40;;;;;;3126981;28;20133;-84
2021/10/06 02:02:53;;;;;;;1.27;1.10;;;17.70;64.40;;;;;;3128006;28;20045;-85
2021/10/06 02:04:25;;;;;;;1.10;1.00;;;17.70;64.50;;;;;;3127930;28;20049;-84
2021/10/06 02:05:56;;;;;;;1.25;1.15;;;17.70;64.50;;;;;;3128384;28;20045;-84
2021/10/06 02:07:29;;;;;;;1.60;1.20;;;17.70;64.60;;;;;;3128105;28;20045;-83
2021/10/06 02:09:01;;;;;;;;;;;17.70;64.50;;;;;;3134713;28;20055;-84
2021/10/06 02:10:33;;;;;;;1.10;1.00;;;17.70;64.60;;;;;;3139396;28;20357;-84
2021/10/06 02:12:05;;;;;;;1.30;1.20;;;17.70;64.50;;;;;;3140285;28;20518;-84
2021/10/06 02:13:37;;;;;;;1.45;1.30;;;17.70;64.50;;;;;;3140355;28;20509;-84
2021/10/06 02:15:09;;;;;;;1.20;1.10;;;17.70;64.50;;;;;;3138540;28;20052;-84
2021/10/06 02:16:41;;;;;;;1.47;1.30;;;17.70;64.50;;;;;;3139918;28;20053;-84
2021/10/06 02:18:13;;;;;;;1.30;1.20;;;17.70;64.50;;;;;;3140590;28;20299;-84
2021/10/06 02:19:44;;;;;;;1.20;1.10;;;17.70;64.50;;;;;;3139130;28;20103;-85
2021/10/06 02:21:16;;;;;;;1.40;1.30;;;17.70;64.50;;;;;;3140754;28;20300;-84
2021/10/06 02:22:49;;;;;;;2.00;1.42;;;17.70;64.50;;;;;;3139775;28;20045;-83
2021/10/06 02:24:21;;;;;;;1.45;1.30;;;17.70;64.50;;;;;;3140183;28;20049;-83
2021/10/06 02:25:52;;;;;;;1.23;1.13;;;17.70;64.50;;;;;;3140573;28;20049;-84
2021/10/06 02:27:25;;;;;;;1.27;1.17;;;17.70;64.50;;;;;;3126675;28;20060;-84
2021/10/06 02:28:57;;;;;;;0.88;0.88;;;17.60;64.50;;;;;;3135680;28;20052;-83
2021/10/06 02:30:29;;;;;;;1.15;1.00;;;17.60;64.50;;;;;;3139493;28;20048;-84
2021/10/06 02:32:00;;;;;;;1.20;1.08;;;17.70;64.50;;;;;;3139624;28;20049;-84
2021/10/06 02:33:32;;;;;;;1.27;1.17;;;17.70;64.50;;;;;;3140267;28;20485;-84
2021/10/06 02:35:04;;;;;;;1.20;1.10;;;17.60;64.50;;;;;;3139902;28;20437;-84
2021/10/06 02:36:36;;;;;;;1.30;1.10;;;17.70;64.50;;;;;;3140425;28;20049;-83
2021/10/06 02:38:09;;;;;;;1.20;1.10;;;17.60;64.50;;;;;;3140139;28;20067;-83
2021/10/06 02:39:41;;;;;;;1.08;0.98;;;17.60;64.60;;;;;;3136347;28;20045;-84
2021/10/06 02:41:12;;;;;;;1.20;1.10;;;17.60;64.50;;;;;;3140537;28;20049;-84
2021/10/06 02:42:45;;;;;;;1.15;1.00;;;17.70;64.50;;;;;;3140250;28;20103;-84
2021/10/06 02:44:16;;;;;;;1.30;1.17;;;17.70;64.60;;;;;;3140465;28;20056;-84
2021/10/06 02:45:48;;;;;;;1.27;1.17;;;17.70;64.60;;;;;;3138806;28;20044;-83
2021/10/06 02:47:20;;;;;;;0.95;0.90;;;17.60;64.50;;;;;;3139721;28;20237;-84
2021/10/06 02:48:51;;;;;;;1.00;1.00;;;17.60;65.20;;;;;;3140508;28;20045;-85
2021/10/06 02:50:24;;;;;;;0.90;0.90;;;17.60;64.50;;;;;;3139713;28;20049;-85
2021/10/06 02:51:55;;;;;;;1.45;1.10;;;17.60;64.50;;;;;;3140509;28;20053;-84
2021/10/06 02:53:28;;;;;;;1.20;1.08;;;17.60;64.60;;;;;;3138469;28;20049;-84
2021/10/06 04:36:56;;;;;;;2.35;1.20;;;17.50;64.50;;;;;;3109261;28;20050;-88
2021/10/06 04:38:28;;;;;;;1.17;1.08;;;17.50;64.50;;;;;;3110856;28;20068;-88
2021/10/06 04:39:59;;;;;;;1.23;0.90;;;17.50;64.50;;;;;;3110371;28;20132;-88
2021/10/06 04:41:31;;;;;;;1.20;1.10;;;17.50;64.50;;;;;;3110945;28;20053;-88
2021/10/06 04:43:03;;;;;;;1.13;1.02;;;17.50;64.50;;;;;;3110989;28;20054;-88
2021/10/06 04:44:35;;;;;;;1.15;0.90;;;17.50;64.50;;;;;;3110411;28;20100;-88
2021/10/06 04:46:06;;;;;;;1.30;1.10;;;17.60;64.50;;;;;;3110246;28;20054;-88
2021/10/06 04:47:38;;;;;;;1.50;1.05;;;17.50;64.50;;;;;;3110991;28;20057;-88
2021/10/06 04:49:10;;;;;;;1.80;1.23;;;17.50;64.50;;;;;;3109781;28;20100;-88
2021/10/06 04:50:42;;;;;;;1.10;1.00;;;17.50;64.50;;;;;;3110772;28;20111;-88
2021/10/06 04:52:15;;;;;;;1.23;1.08;;;17.50;64.60;;;;;;3111126;28;20049;-88
2021/10/06 04:53:47;;;;;;;1.27;1.00;;;17.50;64.50;;;;;;3105806;28;20392;-88
2021/10/06 04:55:19;;;;;;;1.05;0.90;;;17.50;64.60;;;;;;3098753;28;20061;-88
2021/10/06 04:56:51;;;;;;;1.23;0.90;;;17.50;64.60;;;;;;3098874;28;20054;-88
2021/10/06 04:58:22;;;;;;;1.08;0.88;;;17.50;64.50;;;;;;3099030;28;20093;-88
2021/10/06 04:59:54;;;;;;;1.17;1.08;;;17.60;64.50;;;;;;3097690;28;20427;-88
2021/10/06 05:01:26;;;;;;;0.80;0.70;;;17.60;64.50;;;;;;3098242;28;20077;-88
2021/10/06 05:03:06;;;;;;;1.43;1.03;;;17.50;64.50;;;;;;3100110;28;20154;-88
2021/10/06 05:04:37;;;;;;;1.48;0.90;;;17.50;64.50;;;;;;3099287;28;20339;-88
2021/10/06 05:06:09;;;;;;;1.08;0.98;;;17.50;64.50;;;;;;3099005;28;20050;-87
2021/10/06 05:07:42;;;;;;;0.90;0.90;;;17.50;64.50;;;;;;3098625;28;20089;-87
2021/10/06 05:09:15;;;;;;;0.88;0.88;;;17.50;64.40;;;;;;3103851;28;20096;-88
2021/10/06 05:10:47;;;;;;;1.33;0.90;;;17.50;64.40;;;;;;3110530;28;20365;-88
2021/10/06 05:12:19;;;;;;;1.67;1.30;;;17.50;64.50;;;;;;3113705;28;20045;-88
2021/10/06 05:13:50;;;;;;;1.00;0.90;;;17.50;64.50;;;;;;3122597;28;20056;-88
2021/10/06 05:15:22;;;;;;;1.45;1.10;;;17.50;64.50;;;;;;3122234;28;20046;-87
2021/10/06 05:16:54;;;;;;;0.80;0.80;;;17.50;64.50;;;;;;3123282;28;20175;-88
2021/10/06 05:18:26;;;;;;;1.17;1.00;;;17.50;64.60;;;;;;3122886;28;20465;-88
2021/10/06 05:19:57;;;;;;;1.15;1.00;;;17.50;64.60;;;;;;3121956;28;20052;-88
2021/10/06 05:21:29;;;;;;;1.10;1.00;;;17.50;64.60;;;;;;3122953;28;20045;-88
2021/10/06 05:23:02;;;;;;;1.30;1.08;;;17.50;64.60;;;;;;3122707;28;20210;-89
2021/10/06 05:24:34;;;;;;;0.98;0.93;;;17.50;64.60;;;;;;3122464;28;20053;-88
2021/10/06 05:26:06;;;;;;;1.25;1.00;;;17.50;64.50;;;;;;3123352;28;20219;-88
2021/10/06 05:27:38;;;;;;;1.20;1.10;;;17.50;64.50;;;;;;3122962;28;20083;-88
2021/10/06 05:29:11;;;;;;;1.17;1.05;;;17.50;64.60;;;;;;3122366;28;20041;-88
2021/10/06 05:30:43;;;;;;;1.10;1.00;;;17.50;64.60;;;;;;3111243;28;20049;-88
2021/10/06 05:32:15;;;;;;;1.20;1.10;;;17.50;64.60;;;;;;3110731;28;20061;-88
2021/10/06 05:33:47;;;;;;;1.55;1.10;;;17.50;64.60;;;;;;3109979;28;20491;-88
2021/10/06 05:35:19;;;;;;;1.08;0.98;;;17.40;64.50;;;;;;3110564;28;20128;-88
2021/10/06 05:36:51;;;;;;;1.52;0.95;;;17.50;64.60;;;;;;3110802;28;20057;-88
2021/10/06 05:38:24;;;;;;;1.50;1.00;;;17.50;64.50;;;;;;3108689;28;20046;-88
2021/10/06 05:39:56;;;;;;;0.93;0.93;;;17.50;64.50;;;;;;3108986;28;20050;-88
2021/10/06 05:41:30;;;;;;;1.55;0.95;;;17.50;64.50;;;;;;3110234;28;20050;-88
2021/10/06 05:43:02;;;;;;;1.00;0.90;;;17.50;64.40;;;;;;3110672;28;20046;-87
2021/10/06 05:44:33;;;;;;;1.00;0.90;;;17.50;64.40;;;;;;3110272;28;20474;-87
2021/10/06 05:46:05;;;;;;;1.10;1.00;;;17.50;64.50;;;;;;3109250;28;20153;-88
2021/10/06 05:47:37;;;;;;;1.23;1.00;;;17.50;64.50;;;;;;3110297;28;20410;-88
2021/10/06 05:49:08;;;;;;;0.80;0.80;;;17.50;65.10;;;;;;3110044;28;20048;-88
2021/10/06 05:50:40;;;;;;;0.95;0.82;;;17.50;64.50;;;;;;3110030;28;20061;-88
2021/10/06 05:52:12;;;;;;;1.48;1.10;;;17.50;64.50;;;;;;3110322;28;20056;-88
2021/10/06 05:53:45;;;;;;;1.13;1.00;;;17.50;64.60;;;;;;3105564;28;20388;-88
2021/10/06 05:55:16;;;;;;;;;;;17.50;64.40;;;;;;3098774;28;20050;-88
2021/10/06 05:56:48;;;;;;;1.02;0.93;;;17.50;64.40;;;;;;3098156;28;19930;-88
2021/10/06 05:58:20;;;;;;;0.98;0.90;;;17.50;64.40;;;;;;3097964;28;20491;-88
2021/10/06 05:59:53;;;;;;;0.80;0.70;;;17.50;64.40;;;;;;3097094;28;20274;-88
2021/10/06 06:01:26;;;;;;;1.77;1.00;;;17.50;64.40;;;;;;3097285;28;20046;-88
2021/10/06 06:02:58;;;;;;;1.00;0.90;;;17.50;64.40;;;;;;3098210;28;20062;-88
2021/10/06 06:04:30;;;;;;;1.73;1.10;;;17.50;64.40;;;;;;3097189;28;20061;-88
2021/10/06 06:06:01;;;;;;;0.90;0.90;;;17.50;64.50;;;;;;3098302;28;20416;-88
2021/10/06 06:07:33;;;;;;;1.00;0.90;;;17.50;64.50;;;;;;3098115;28;20054;-86
2021/10/06 06:09:06;;;;;;;1.00;0.90;;;17.50;64.60;;;;;;3104919;28;20096;-88
2021/10/06 06:10:38;;;;;;;1.00;0.90;;;17.50;64.50;;;;;;3109776;28;20450;-88
2021/10/06 06:12:10;;;;;;;0.85;0.85;;;17.50;64.50;;;;;;3111972;28;20042;-88
2021/10/06 06:13:42;;;;;;;1.35;1.02;;;17.50;64.50;;;;;;3121894;28;20077;-88
2021/10/06 06:15:14;;;;;;;0.95;0.77;;;17.50;64.50;;;;;;3121619;28;20052;-88
2021/10/06 06:16:46;;;;;;;0.80;0.77;;;17.50;64.50;;;;;;3122086;28;20045;-88
2021/10/06 06:18:18;;;;;;;1.20;0.90;;;17.50;64.50;;;;;;3121922;28;20560;-88
2021/10/06 06:19:49;;;;;;;1.17;0.90;;;17.50;64.50;;;;;;3118999;28;20111;-88
2021/10/06 06:21:21;;;;;;;1.00;0.90;;;17.50;64.40;;;;;;3116762;28;20049;-88
2021/10/06 06:22:53;;;;;;;1.00;0.90;;;17.50;64.40;;;;;;3121568;28;20056;-88
2021/10/06 06:24:27;;;;;;;0.88;0.80;;;17.50;64.40;;;;;;3121937;28;20045;-88
2021/10/06 06:25:59;;;;;;;0.80;0.80;;;17.60;64.50;;;;;;3122562;28;20073;-88
2021/10/06 06:27:31;;;;;;;1.20;0.98;;;17.60;64.50;;;;;;3123103;28;20177;-88
2021/10/06 06:29:03;;;;;;;1.23;0.98;;;17.50;64.50;;;;;;3121772;28;20049;-88
2021/10/06 06:30:34;;;;;;;0.98;0.80;;;17.50;64.50;;;;;;3111980;28;20042;-88
2021/10/06 06:32:06;;;;;;;0.73;0.70;;;17.60;64.50;;;;;;3109816;28;20066;-88
2021/10/06 06:33:39;;;;;;;0.82;0.80;;;17.60;64.40;;;;;;3109988;28;20057;-88
2021/10/06 06:35:11;;;;;;;1.10;1.00;;;17.60;64.40;;;;;;3109402;28;20081;-88
2021/10/06 06:36:43;;;;;;;0.80;0.80;;;17.60;64.30;;;;;;3110178;28;20484;-88
2021/10/06 06:38:14;;;;;;;1.00;0.80;;;17.60;64.20;;;;;;3109993;28;20057;-88
2021/10/06 06:39:48;;;;;;;0.70;0.70;;;17.70;64.20;;;;;;3109414;28;20502;-86
2021/10/06 06:41:20;;;;;;;1.92;0.90;;;17.70;64.20;;;;;;3109689;28;20491;-88
2021/10/06 06:42:52;;;;;;;1.05;0.90;;;17.70;64.30;;;;;;3109736;28;20054;-88
2021/10/06 06:44:23;;;;;;;0.80;0.80;;;17.60;64.20;;;;;;3109279;28;20046;-88
2021/10/06 06:45:55;;;;;;;1.42;0.90;;;17.70;64.30;;;;;;3108984;28;20477;-88
2021/10/06 06:47:27;;;;;;;0.88;0.80;;;17.70;64.10;;;;;;3109282;28;20057;-88
2021/10/06 06:48:59;;;;;;;0.80;0.80;;;17.70;64.10;;;;;;3109351;28;20061;-87
2021/10/06 06:50:30;;;;;;;1.10;0.90;;;17.60;64.30;;;;;;3110695;28;20417;-86
2021/10/06 06:52:03;;;;;;;1.10;0.90;;;17.60;64.40;;;;;;3110362;28;20058;-86
2021/10/06 06:53:35;;;;;;;1.10;1.00;;;17.60;64.50;;;;;;3110072;28;20068;-88
2021/10/06 06:55:08;;;;;;;0.90;0.90;;;17.60;64.60;;;;;;3108698;28;20052;-89
2021/10/06 06:56:40;;;;;;;1.35;1.00;;;17.60;64.50;;;;;;3110038;28;20050;-88
2021/10/06 06:58:12;;;;;;;1.20;0.90;;;17.60;64.50;;;;;;3110032;28;20060;-88
2021/10/06 06:59:44;;;;;;;1.60;0.90;;;17.60;64.50;;;;;;3108856;28;20053;-88
2021/10/06 07:01:15;;;;;;;0.90;0.90;;;17.60;64.50;;;;;;3109174;28;20045;-87
2021/10/06 07:02:47;;;;;;;0.73;0.73;;;17.60;64.50;;;;;;3109927;28;20131;-87
2021/10/06 07:04:19;;;;;;;0.98;0.80;;;17.60;64.50;;;;;;3108978;28;20060;-88
2021/10/06 07:05:50;;;;;;;1.15;0.90;;;17.60;64.70;;;;;;3110004;28;20054;-87
2021/10/06 07:07:22;;;;;;;1.00;0.90;;;17.60;64.70;;;;;;3109329;28;20525;-87
2021/10/06 07:08:54;;;;;;;0.80;0.80;;;17.60;64.60;;;;;;3108769;28;20046;-88
2021/10/06 07:10:27;;;;;;;0.95;0.80;;;17.60;64.60;;;;;;3109383;28;20053;-88
2021/10/06 07:11:59;;;;;;;0.70;0.70;;;17.70;64.50;;;;;;3109488;28;20045;-88
2021/10/06 07:13:31;;;;;;;0.98;0.98;;;17.60;64.60;;;;;;3109801;28;20057;-89
2021/10/06 07:15:03;;;;;;;1.08;1.00;;;17.60;64.60;;;;;;3109064;28;20108;-88
2021/10/06 07:16:35;;;;;;;1.15;1.02;;;17.60;64.70;;;;;;3108994;28;20046;-88
2021/10/06 07:18:06;;;;;;;0.93;0.80;;;17.60;64.60;;;;;;3109647;28;20042;-88
2021/10/06 07:19:39;;;;;;;1.75;0.80;;;17.60;64.70;;;;;;3108519;28;20095;-87
2021/10/06 07:21:11;;;;;;;0.90;0.80;;;17.60;64.60;;;;;;3109257;28;20064;-88
2021/10/06 07:22:45;;;;;;;1.10;0.80;;;17.60;64.70;;;;;;3111619;28;20049;-88
2021/10/06 07:24:16;;;;;;;1.20;1.00;;;17.50;64.80;;;;;;3116525;28;20494;-87
2021/10/06 07:25:50;;;;;;;1.50;1.00;;;17.60;64.90;;;;;;3119191;28;20576;-87
2021/10/06 07:27:23;;;;;;;1.15;0.80;;;17.60;64.80;;;;;;3119105;28;20108;-87
2021/10/06 07:28:55;;;;;;;1.42;1.00;;;17.60;65.50;;;;;;3118983;28;20060;-87
2021/10/06 07:30:29;;;;;;;0.95;0.77;;;17.60;64.80;;;;;;3117822;28;20041;-87
2021/10/06 07:32:01;;;;;;;0.60;0.60;;;17.60;64.70;;;;;;3119635;28;20076;-87
2021/10/06 07:33:33;;;;;;;1.67;0.95;;;17.60;64.80;;;;;;3123634;28;20091;-87
2021/10/06 07:35:06;;;;;;;1.30;0.90;;;17.60;64.60;;;;;;3122991;28;20045;-87
2021/10/06 07:36:37;;;;;;;1.48;1.00;;;17.50;64.60;;;;;;3122266;28;20073;-86
2021/10/06 07:38:10;;;;;;;1.23;0.88;;;17.60;64.80;;;;;;3123011;28;20303;-87
2021/10/06 07:39:41;;;;;;;1.45;0.90;;;17.60;64.80;;;;;;3119630;28;20050;-86
2021/10/06 07:41:14;;;;;;;1.30;0.88;;;17.60;64.80;;;;;;3123615;28;20046;-87
2021/10/06 07:42:46;;;;;;;1.50;1.10;;;17.60;64.80;;;;;;3123556;28;20053;-87
2021/10/06 07:44:18;;;;;;;0.90;0.80;;;17.60;64.80;;;;;;3123096;28;20053;-87
2021/10/06 07:45:50;;;;;;;1.25;0.90;;;17.60;64.90;;;;;;3122667;28;20046;-87
2021/10/06 07:47:22;;;;;;;0.70;0.70;;;17.50;64.90;;;;;;3124893;28;20064;-86
2021/10/06 07:48:54;;;;;;;0.90;0.80;;;17.60;64.90;;;;;;3122393;28;20050;-87
2021/10/06 07:50:28;;;;;;;1.98;1.00;;;17.50;64.90;;;;;;3122505;28;20077;-87
2021/10/06 07:52:00;;;;;;;1.52;0.88;;;17.50;64.90;;;;;;3123004;28;20053;-87
2021/10/06 07:53:32;;;;;;;1.00;0.88;;;17.60;65.00;;;;;;3123610;28;20061;-87
2021/10/06 07:55:05;;;;;;;1.13;0.90;;;17.60;65.50;;;;;;3121588;28;20054;-87
2021/10/06 07:56:38;;;;;;;1.10;0.90;;;17.50;64.80;;;;;;3121276;28;20061;-87
2021/10/06 07:58:10;;;;;;;1.40;1.00;;;17.50;64.90;;;;;;3121235;28;20060;-87
2021/10/06 07:59:41;;;;;;;1.50;0.90;;;17.50;64.80;;;;;;3120436;28;20096;-87
2021/10/06 08:01:13;;;;;;;1.00;0.90;;;17.50;64.90;;;;;;3120579;28;20045;-87
2021/10/06 08:02:45;;;;;;;0.88;0.80;;;17.50;64.90;;;;;;3120922;28;20068;-87
2021/10/06 08:04:17;;;;;;;1.10;0.75;;;17.50;65.00;;;;;;3120642;28;20053;-87
2021/10/06 08:05:48;;;;;;;0.82;0.80;;;17.60;65.00;;;;;;3121152;28;20080;-87
2021/10/06 08:07:20;;;;;;;1.67;0.88;;;17.60;64.90;;;;;;3120626;28;20049;-87
2021/10/06 08:08:52;;;;;;;1.13;0.73;;;17.50;64.90;;;;;;3119813;28;20081;-87
2021/10/06 08:10:24;;;;;;;1.20;0.95;;;17.50;64.90;;;;;;3120003;28;20057;-87
2021/10/06 08:11:57;;;;;;;1.00;0.90;;;17.60;64.90;;;;;;3122049;28;20085;-88
2021/10/06 08:13:29;;;;;;;1.35;0.90;;;17.60;64.80;;;;;;3135366;28;20045;-87
2021/10/06 08:15:01;;;;;;;1.08;0.90;;;17.60;64.80;;;;;;3134566;28;20068;-87
2021/10/06 08:16:33;;;;;;;0.90;0.90;;;17.60;64.90;;;;;;3134497;28;20049;-87
2021/10/06 08:18:04;;;;;;;1.35;0.82;;;17.60;64.70;;;;;;3135591;28;20049;-87
2021/10/06 08:19:36;;;;;;;1.33;0.80;;;17.60;64.80;;;;;;3134528;28;20064;-88
2021/10/06 08:21:08;;;;;;;1.27;0.82;;;17.50;64.80;;;;;;3136063;28;20045;-88
2021/10/06 08:22:40;;;;;;;1.05;0.80;;;17.50;64.90;;;;;;3135428;28;20100;-87
2021/10/06 08:24:19;;;;;;;1.00;0.80;;;17.50;64.90;;;;;;3134506;28;20076;-87
2021/10/06 08:25:51;;;;;;;1.33;0.90;;;17.60;64.90;;;;;;3135274;28;20046;-87
2021/10/06 08:27:24;;;;;;;1.23;0.90;;;17.60;64.80;;;;;;3135723;28;20073;-87
2021/10/06 08:29:06;;;;;;;;;;;;;;;;;;;;;
2021/10/06 08:30:38;;;;;;;1.42;1.00;;;17.60;64.80;;;;;;3124404;28;20046;-88
2021/10/06 08:32:10;;;;;;;1.08;0.80;;;17.60;65.50;;;;;;3123180;28;20077;-87
2021/10/06 08:33:42;;;;;;;0.80;0.70;;;17.50;64.90;;;;;;3122975;28;20077;-87
2021/10/06 08:35:13;;;;;;;1.42;0.68;;;17.60;64.90;;;;;;3123348;28;20041;-88
2021/10/06 08:36:45;;;;;;;1.00;0.90;;;17.60;64.90;;;;;;3122700;28;20057;-87
2021/10/06 08:38:17;;;;;;;1.52;1.00;;;17.50;64.80;;;;;;3123141;28;20085;-87
2021/10/06 08:39:48;;;;;;;1.10;0.90;;;17.50;64.80;;;;;;3122017;28;20068;-87
2021/10/06 08:41:20;;;;;;;1.13;0.90;;;17.50;64.90;;;;;;3122984;28;20113;-87
2021/10/06 08:42:54;;;;;;;1.17;0.82;;;17.60;64.90;;;;;;3123497;28;20050;-88
2021/10/06 08:44:26;;;;;;;1.27;0.93;;;17.50;64.90;;;;;;3115446;28;20132;-87
2021/10/06 08:45:58;;;;;;;0.80;0.80;;;17.50;65.00;;;;;;3111292;28;20414;-89
2021/10/06 08:47:31;;;;;;;1.48;0.90;;;17.50;64.90;;;;;;3111039;28;20049;-89
2021/10/06 08:49:03;;;;;;;1.00;0.80;;;17.60;64.80;;;;;;3110931;28;20054;-88
2021/10/06 08:50:35;;;;;;;0.98;0.80;;;17.60;64.90;;;;;;3110828;28;20050;-89
2021/10/06 08:52:06;;;;;;;1.27;1.00;;;17.50;64.90;;;;;;3111332;28;20056;-90
2021/10/06 08:53:41;;;;;;;1.92;0.80;;;17.50;65.10;;;;;;3110815;28;20140;-88
2021/10/06 08:55:13;;;;;;;1.15;1.02;;;17.50;65.10;;;;;;3110754;28;20060;-89
2021/10/06 08:56:48;;;;;;;0.80;0.70;;;17.50;65.00;;;;;;3110915;28;20247;-89
2021/10/06 08:58:21;;;;;;;1.38;0.98;;;17.50;65.00;;;;;;3111607;28;20499;-88
2021/10/06 08:59:52;;;;;;;1.60;0.90;;;17.60;64.90;;;;;;3110155;28;20061;-88
2021/10/06 09:01:25;;;;;;;1.23;0.75;;;17.50;64.80;;;;;;3110117;28;20574;-89
2021/10/06 09:02:57;;;;;;;1.85;0.80;;;17.60;64.70;;;;;;3111125;28;20050;-88
2021/10/06 09:04:32;;;;;;;1.17;0.98;;;17.60;64.60;;;;;;3110877;28;20100;-89
2021/10/06 09:06:05;;;;;;;1.40;0.90;;;17.50;64.60;;;;;;3111387;28;20097;-88
2021/10/06 09:07:53;;;;;;;1.42;1.00;;;17.60;65.40;;;;;;3110553;28;20054;-88
2021/10/06 09:09:28;;;;;;;0.90;0.70;;;17.50;64.80;;;;;;3107619;28;20181;-89
2021/10/06 09:11:00;;;;;;;1.50;1.10;;;17.50;64.80;;;;;;3110881;28;20053;-89
2021/10/06 09:12:32;;;;;;;1.63;1.10;;;17.50;64.90;;;;;;3116113;28;20052;-90
2021/10/06 09:14:06;;;;;;;2.05;1.00;;;17.50;64.90;;;;;;3122755;28;20060;-89
2021/10/06 09:15:42;;;;;;;1.40;0.90;;;17.60;64.80;;;;;;3122316;28;20103;-89
2021/10/06 09:17:15;;;;;;;1.08;0.85;;;17.50;64.70;;;;;;3122866;28;20101;-88
2021/10/06 09:18:47;;;;;;;1.40;0.93;;;17.60;64.80;;;;;;3122549;28;20452;-88
2021/10/06 09:20:19;;;;;;;0.90;0.80;;;17.60;64.90;;;;;;3140708;22;20057;-83
2021/10/06 09:21:58;;;;;;;1.08;0.80;;;17.60;64.80;;;;;;3130825;28;20057;-84
2021/10/06 09:23:30;;;;;;;1.20;1.02;;;17.60;64.80;;;;;;3138299;28;20083;-84
2021/10/06 09:25:05;;;;;;;1.50;0.80;;;17.60;64.50;;;;;;3138439;28;20052;-84
2021/10/06 09:26:36;;;;;;;0.93;0.80;;;17.60;64.60;;;;;;3138809;28;20053;-84
2021/10/06 09:28:08;;;;;;;1.45;0.80;;;17.60;64.70;;;;;;3138167;28;20241;-84
2021/10/06 09:29:48;;;;;;;0.95;0.80;;;17.60;64.80;;;;;;3137626;28;20421;-82
2021/10/06 09:31:21;;;;;;;1.45;0.80;;;17.60;64.80;;;;;;3138290;28;20514;-84
2021/10/06 09:32:53;;;;;;;1.75;1.10;;;17.60;64.70;;;;;;3138052;28;20088;-84
2021/10/06 09:34:24;;;;;;;2.15;0.88;;;17.60;64.80;;;;;;3137174;28;20350;-84
2021/10/06 09:36:08;;;;;;;1.25;0.90;;;17.60;64.80;;;;;;3137548;28;20045;-84
2021/10/06 09:37:40;;;;;;;1.25;0.80;;;17.60;64.80;;;;;;3138322;28;20569;-84
2021/10/06 09:39:12;;;;;;;1.73;1.05;;;17.50;64.80;;;;;;3133987;28;20052;-84
2021/10/06 09:40:44;;;;;;;1.45;0.90;;;17.60;64.70;;;;;;3136887;28;20144;-84
2021/10/06 09:42:16;;;;;;;1.13;0.75;;;17.60;64.90;;;;;;3138668;28;20056;-83